Impacts METAR Board INFO
IDs:

KMEM - Memphis Intl, TN, US

Updated at: 1512 UTC 18 Jan 2018
Potential Impact None Slight Moderate High
Time18/03Z 18/04Z 18/05Z 18/06Z 18/07Z 18/08Z 18/09Z 18/10Z 18/11Z 18/12Z 18/13Z 18/14Z 18/15Z
VIS10 10 10 10 10 10 10 10 10 10 10 10 10
CIG-- -- -- -- -- -- -- -- -- -- -- -- --
CoverCLRCLRCLRCLRCLRCLRCLRCLRCLRCLRCLRCLRCLR
FltCatVFRVFRVFRVFRVFRVFRVFRVFRVFRVFRVFRVFRVFR
WX--------------------------
WDir00200001900000230210210
WSpd0 0 3 0 0 4 0 0 0 0 3 5 3
WGst-- -- -- -- -- -- -- -- -- -- -- -- --
Raw hourly METARs
KMEM 180254Z 00000KT 10SM CLR M09/M13 A3062 RMK AO2 SLP373 T10941128 58012 $
KMEM 180354Z 00000KT 10SM CLR M09/M12 A3061 RMK AO2 SLP372 T10891122 $
KMEM 180454Z 20003KT 10SM CLR M11/M13 A3062 RMK AO2 SLP373 T11061128 $
KMEM 180554Z 00000KT 10SM CLR M10/M12 A3061 RMK AO2 SLP371 4/001 T11001122 11083 21106 410561139 58002 $
KMEM 180654Z 00000KT 10SM CLR M10/M13 A3060 RMK AO2 SLP368 T11001128 $
KMEM 180754Z 19004KT 10SM CLR M11/M13 A3058 RMK AO2 SLP361 T11061128 $
KMEM 180854Z 00000KT 10SM CLR M10/M13 A3057 RMK AO2 SLP356 T11001128 58015 $
KMEM 180954Z 00000KT 10SM CLR M11/M13 A3056 RMK AO2 SLP353 T11111133 $
KMEM 181054Z 00000KT 10SM CLR M11/M13 A3054 RMK AO2 SLP349 T11061128 $
KMEM 181154Z 00000KT 10SM CLR M11/M13 A3055 RMK AO2 SLP350 4/001 T11061128 11094 21117 55006 $
KMEM 181254Z 23003KT 10SM CLR M10/M13 A3055 RMK AO2 SLP352 T11001128 $
KMEM 181354Z 21005KT 10SM CLR M09/M12 A3056 RMK AO2 SLP354 T10891117 $
KMEM 181454Z 21003KT 10SM CLR M07/M11 A3056 RMK AO2 SLP352 T10671106 50002 $